Hlavní strana
METAR-TAF:

METAR-TAF

Letiště :

Letiště Altenburg-Nobitz

Altenburg, Německo

zeměpisná šířka: 50-58N, zeměpisná délka: 012-30E, výška: 195 m

Aktuální stav počasí

Zpráva byla vytvořena před 2 hodinami a 40 minutami, v 16:50 UTC
vítr z různých směrů 3 kt
Teplota 22°C
Vlhkost vzduchu 65%
Tlak 1019 hPa
Viditelnost 10 km a více
Žádná oblačnost pod 1500 m, nevyskytují se cumulonimby.

METAR: EDAC 271650Z VRB03KT CAVOK 22/15 Q1019

Čas: 21:30 (19:30 UTC)


TAF: chybějící

Stav a předpovědi počasí z více než 4 000 letišť (zprávy METAR a TAF).

Červené a žluté tečky na mapě představují dostupné meteorologické stanice.

Když kurzor umístíte na tečku, zobrazí se název stanice.

Pak kliknutím zobrazíte stav a předpověď počasí.

Chcete-li změnit mapu, kliknutím na zelené tlačítko se znaménkem +mapu přiblížíte, kliknutím na zelené tlačítko se znaménkem – mapu oddálíte a kliknutím na zelené šipky přejdete na sousední mapy.


METAR-TAF: